createdAt,value
2018-08-11T00:01:58.925Z,99409.31
2018-08-11T00:04:33.468Z,99405.17
2018-08-11T00:07:07.852Z,99405.57
2018-08-11T00:09:42.432Z,99409.55
2018-08-11T00:12:17.065Z,99401.05
2018-08-11T00:14:51.617Z,99399.25
2018-08-11T00:17:26.241Z,99396.18
2018-08-11T00:20:00.884Z,99396.95
2018-08-11T00:22:35.428Z,99401.82
2018-08-11T00:25:11.789Z,99392.23
2018-08-11T00:27:46.240Z,99398.14
2018-08-11T00:30:21.513Z,99401.72
2018-08-11T00:32:56.173Z,99398.25
2018-08-11T00:35:30.785Z,99402.03
2018-08-11T00:38:06.065Z,99395.41
2018-08-11T00:40:40.656Z,99388.86
2018-08-11T00:43:15.163Z,99400.31
2018-08-11T00:45:49.908Z,99398.17
2018-08-11T00:48:24.484Z,99397.15
2018-08-11T00:50:59.141Z,99387.20
2018-08-11T00:53:33.724Z,99390.45
2018-08-11T00:56:08.471Z,99391.08
2018-08-11T00:58:43.015Z,99394.21
2018-08-11T01:01:17.564Z,99397.14
2018-08-11T01:03:52.280Z,99401.24
2018-08-11T01:06:26.936Z,99404.36
2018-08-11T01:09:01.333Z,99402.75
2018-08-11T01:11:36.126Z,99402.09
2018-08-11T01:14:23.080Z,99403.81
2018-08-11T01:17:02.148Z,99407.82
2018-08-11T01:19:44.096Z,99413.86
2018-08-11T01:22:18.680Z,99420.75
2018-08-11T01:24:53.680Z,99437.02
2018-08-11T01:27:28.683Z,99449.78
2018-08-11T01:30:03.326Z,99450.93
2018-08-11T01:32:38.921Z,99449.98
2018-08-11T01:35:13.572Z,99448.13
2018-08-11T01:37:48.017Z,99441.44
2018-08-11T01:40:22.672Z,99447.95
2018-08-11T01:42:57.659Z,99450.42
2018-08-11T01:45:32.187Z,99447.39
2018-08-11T01:48:07.040Z,99443.26
2018-08-11T01:50:41.912Z,99441.56
2018-08-11T01:53:26.996Z,99463.97
2018-08-11T01:56:01.733Z,99464.53
2018-08-11T01:58:36.368Z,99460.28
2018-08-11T02:01:10.992Z,99459.25
2018-08-11T02:03:45.696Z,99453.60
2018-08-11T02:06:20.543Z,99444.77
2018-08-11T02:08:55.044Z,99439.45
2018-08-11T02:11:29.604Z,99435.84
2018-08-11T02:14:04.336Z,99444.77
2018-08-11T02:16:38.847Z,99458.51
2018-08-11T02:19:13.579Z,99441.95
2018-08-11T02:21:48.116Z,99437.92
2018-08-11T02:24:22.884Z,99446.13
2018-08-11T02:26:58.037Z,99440.66
2018-08-11T02:29:32.664Z,99436.41
2018-08-11T02:32:07.399Z,99437.94
2018-08-11T02:34:41.825Z,99443.81
2018-08-11T02:37:16.406Z,99445.42
2018-08-11T02:39:51.090Z,99444.94
2018-08-11T02:42:25.686Z,99451.55
2018-08-11T02:45:00.360Z,99444.46
2018-08-11T02:47:35.021Z,99442.11
2018-08-11T02:50:10.753Z,99443.86
2018-08-11T02:52:45.317Z,99456.58
2018-08-11T02:55:19.856Z,99463.76
2018-08-11T02:57:54.440Z,99470.09
2018-08-11T03:00:29.021Z,99473.59
2018-08-11T03:03:03.552Z,99477.36
2018-08-11T03:05:38.080Z,99464.28
2018-08-11T03:08:12.745Z,99468.13
2018-08-11T03:10:47.392Z,99477.88
2018-08-11T03:13:24.732Z,99485.59
2018-08-11T03:15:59.233Z,99480.58
2018-08-11T03:18:34.173Z,99475.95
2018-08-11T03:21:08.729Z,99474.13
2018-08-11T03:23:43.322Z,99471.52
2018-08-11T03:26:17.844Z,99468.42
2018-08-11T03:28:52.465Z,99467.73
2018-08-11T03:31:27.064Z,99481.32
2018-08-11T03:34:11.613Z,99481.00
2018-08-11T03:36:46.086Z,99485.14
2018-08-11T03:39:20.775Z,99495.84
2018-08-11T03:41:55.757Z,99486.92
2018-08-11T03:44:30.448Z,99488.04
2018-08-11T03:47:05.017Z,99497.32
2018-08-11T03:49:39.724Z,99502.70
2018-08-11T03:52:14.939Z,99505.68
2018-08-11T03:54:49.605Z,99510.71
2018-08-11T03:57:24.227Z,99508.31
2018-08-11T03:59:58.822Z,99509.62
2018-08-11T04:02:33.596Z,99510.98
2018-08-11T04:05:08.193Z,99509.12
2018-08-11T04:07:43.138Z,99510.34
2018-08-11T04:10:18.104Z,99507.48
2018-08-11T04:12:52.575Z,99513.37
2018-08-11T04:15:27.241Z,99511.59
2018-08-11T04:18:02.081Z,99517.23
2018-08-11T04:20:37.181Z,99518.52
2018-08-11T04:23:11.640Z,99524.09
2018-08-11T04:26:02.192Z,99522.25
2018-08-11T04:28:36.866Z,99522.00
2018-08-11T04:31:11.356Z,99525.69
2018-08-11T04:33:45.921Z,99525.76
2018-08-11T04:36:20.447Z,99523.89
2018-08-11T04:38:55.312Z,99534.11
2018-08-11T04:41:29.780Z,99535.04
2018-08-11T04:44:04.425Z,99529.70
2018-08-11T04:46:39.133Z,99531.00
2018-08-11T04:49:14.277Z,99537.45
2018-08-11T04:51:48.765Z,99533.47
2018-08-11T04:54:23.365Z,99536.20
2018-08-11T04:56:58.066Z,99536.20
2018-08-11T04:59:32.524Z,99540.78
2018-08-11T05:02:07.060Z,99541.17
2018-08-11T05:04:41.760Z,99535.89
2018-08-11T05:07:16.272Z,99542.40
2018-08-11T05:09:51.103Z,99551.08
2018-08-11T05:12:25.816Z,99555.91
2018-08-11T05:15:00.512Z,99563.83
2018-08-11T05:17:35.028Z,99567.85
2018-08-11T05:20:09.692Z,99568.55
2018-08-11T05:22:44.310Z,99571.25
2018-08-11T05:25:19.088Z,99567.78
2018-08-11T05:27:54.013Z,99566.52
2018-08-11T05:30:28.977Z,99572.02
2018-08-11T05:33:03.893Z,99577.94
2018-08-11T05:35:38.508Z,99584.45
2018-08-11T05:38:13.096Z,99574.12
2018-08-11T05:40:47.671Z,99575.73
2018-08-11T05:43:22.345Z,99581.01
2018-08-11T05:45:57.038Z,99579.50
2018-08-11T05:48:31.739Z,99580.98
2018-08-11T05:51:06.651Z,99578.70
2018-08-11T05:53:41.396Z,99588.19
2018-08-11T05:56:16.044Z,99587.26
2018-08-11T05:58:50.500Z,99598.82
2018-08-11T06:01:25.401Z,99599.95
2018-08-11T06:04:00.062Z,99597.37
2018-08-11T06:06:34.565Z,99593.61
2018-08-11T06:09:09.827Z,99600.14
2018-08-11T06:11:44.446Z,99604.97
2018-08-11T06:14:20.405Z,99607.39
2018-08-11T06:16:55.013Z,99604.58
2018-08-11T06:19:29.646Z,99613.25
2018-08-11T06:22:04.241Z,99613.81
2018-08-11T06:24:38.925Z,99617.22
2018-08-11T06:27:13.609Z,99614.13
2018-08-11T06:29:48.259Z,99622.63
2018-08-11T06:32:22.824Z,99620.30
2018-08-11T06:34:57.413Z,99618.62
2018-08-11T06:37:32.234Z,99621.73
2018-08-11T06:40:07.422Z,99625.72
2018-08-11T06:42:41.861Z,99618.55
2018-08-11T06:45:16.385Z,99615.12
2018-08-11T06:47:51.281Z,99617.66
2018-08-11T06:50:25.800Z,99635.30
2018-08-11T06:53:00.362Z,99636.52
2018-08-11T06:55:34.932Z,99634.41
2018-08-11T06:58:09.844Z,99645.91
2018-08-11T07:00:44.437Z,99643.84
2018-08-11T07:03:19.129Z,99647.61
2018-08-11T07:05:53.754Z,99646.48
2018-08-11T07:08:28.479Z,99645.05
2018-08-11T07:11:03.116Z,99648.13
2018-08-11T07:13:37.668Z,99658.53
2018-08-11T07:16:12.644Z,99659.41
2018-08-11T07:18:47.298Z,99659.70
2018-08-11T07:21:22.043Z,99665.15
2018-08-11T07:23:56.819Z,99659.23
2018-08-11T07:26:31.635Z,99655.01
2018-08-11T07:29:06.280Z,99651.84
2018-08-11T07:31:40.748Z,99663.55
2018-08-11T07:34:19.418Z,99664.02
2018-08-11T07:36:54.213Z,99666.93
2018-08-11T07:39:29.864Z,99669.35
2018-08-11T07:42:12.396Z,99668.16
2018-08-11T07:44:58.380Z,99677.92
2018-08-11T07:47:35.262Z,99668.08
2018-08-11T07:50:09.850Z,99677.05
2018-08-11T07:52:44.354Z,99672.96
2018-08-11T07:55:19.169Z,99670.61
2018-08-11T07:57:53.660Z,99684.11
2018-08-11T08:00:28.156Z,99688.66
2018-08-11T08:03:26.971Z,99695.53
2018-08-11T08:06:05.568Z,99697.46
2018-08-11T08:11:39.571Z,99709.39
2018-08-11T08:14:14.228Z,99701.88
2018-08-11T08:16:48.816Z,99695.23
2018-08-11T08:19:23.370Z,99699.84
2018-08-11T08:21:58.000Z,99710.30
2018-08-11T08:24:32.894Z,99701.71
2018-08-11T08:27:07.573Z,99702.69
2018-08-11T08:29:42.225Z,99703.73
2018-08-11T08:32:16.951Z,99694.98
2018-08-11T08:34:51.304Z,99692.70
2018-08-11T08:37:25.761Z,99702.09
2018-08-11T08:40:00.476Z,99694.45
2018-08-11T08:42:35.189Z,99709.01
2018-08-11T08:45:10.773Z,99705.28
2018-08-11T08:47:45.155Z,99698.78
2018-08-11T08:50:20.077Z,99691.05
2018-08-11T08:52:54.639Z,99691.03
2018-08-11T08:55:29.266Z,99689.23
2018-08-11T08:58:04.041Z,99689.28
2018-08-11T09:00:38.689Z,99684.88
2018-08-11T09:03:13.280Z,99685.48
2018-08-11T09:05:48.249Z,99684.44
2018-08-11T09:08:22.792Z,99690.29
2018-08-11T09:10:57.355Z,99680.89
2018-08-11T09:13:32.036Z,99679.48
2018-08-11T09:16:06.811Z,99688.67
2018-08-11T09:18:41.577Z,99685.62
2018-08-11T09:21:16.200Z,99691.17
2018-08-11T09:23:50.835Z,99687.15
2018-08-11T09:26:25.733Z,99696.63
2018-08-11T09:29:00.372Z,99693.73
2018-08-11T09:31:35.048Z,99693.83
2018-08-11T09:34:09.556Z,99707.73
2018-08-11T09:36:50.329Z,99704.92
2018-08-11T09:39:25.052Z,99704.92
2018-08-11T09:41:59.645Z,99710.55
2018-08-11T09:44:34.296Z,99713.03
2018-08-11T09:47:09.006Z,99708.44
2018-08-11T09:49:43.719Z,99699.77
2018-08-11T09:52:18.386Z,99697.82
2018-08-11T09:54:53.276Z,99703.91
2018-08-11T09:57:28.196Z,99703.69
2018-08-11T10:00:02.879Z,99699.03
2018-08-11T10:02:37.618Z,99703.42
2018-08-11T10:05:12.287Z,99702.63
2018-08-11T10:07:46.964Z,99691.64
2018-08-11T10:10:22.215Z,99688.37
2018-08-11T10:12:56.492Z,99691.27
2018-08-11T10:15:32.017Z,99686.17
2018-08-11T10:18:06.944Z,99691.06
2018-08-11T10:20:41.615Z,99687.05
2018-08-11T10:23:16.301Z,99692.01
2018-08-11T10:25:51.421Z,99679.95
2018-08-11T10:28:26.109Z,99678.47
2018-08-11T10:31:00.699Z,99691.44
2018-08-11T10:33:35.212Z,99689.95
2018-08-11T10:36:09.689Z,99695.53
2018-08-11T10:38:44.233Z,99705.63
2018-08-11T10:41:18.637Z,99706.14
2018-08-11T10:43:53.276Z,99695.73
2018-08-11T10:46:27.871Z,99692.55
2018-08-11T10:49:02.948Z,99691.86
2018-08-11T10:51:37.528Z,99693.36
2018-08-11T10:54:12.352Z,99705.00
2018-08-11T10:56:47.072Z,99693.89
2018-08-11T10:59:36.340Z,99686.48
2018-08-11T11:02:10.799Z,99688.19
2018-08-11T11:04:45.412Z,99679.79
2018-08-11T11:07:20.413Z,99684.77
2018-08-11T11:09:54.849Z,99678.81
2018-08-11T11:12:29.427Z,99674.95
2018-08-11T11:15:03.916Z,99686.61
2018-08-11T11:17:39.039Z,99688.06
2018-08-11T11:23:13.504Z,99696.30
2018-08-11T11:25:47.730Z,99684.24
2018-08-11T11:28:21.919Z,99694.89
2018-08-11T11:30:56.217Z,99689.48
2018-08-11T11:33:30.615Z,99687.36
2018-08-11T11:36:05.140Z,99700.94
2018-08-11T11:38:39.480Z,99690.78
2018-08-11T11:41:14.160Z,99686.09
2018-08-11T11:43:48.709Z,99691.76
2018-08-11T11:46:23.284Z,99690.34
2018-08-11T11:48:57.897Z,99684.50
2018-08-11T11:51:32.706Z,99694.19
2018-08-11T11:54:07.704Z,99697.22
2018-08-11T11:56:42.272Z,99697.06
2018-08-11T11:59:16.853Z,99696.26
2018-08-11T12:01:51.452Z,99695.20
2018-08-11T12:04:26.101Z,99697.25
2018-08-11T12:07:00.598Z,99699.40
2018-08-11T12:09:35.708Z,99693.14
2018-08-11T12:12:10.421Z,99684.04
2018-08-11T12:14:44.999Z,99685.84
2018-08-11T12:17:19.354Z,99690.66
2018-08-11T12:19:53.983Z,99682.15
2018-08-11T12:22:28.463Z,99679.39
2018-08-11T12:25:03.183Z,99678.17
2018-08-11T12:27:37.833Z,99675.28
2018-08-11T12:30:12.337Z,99671.84
2018-08-11T12:32:46.973Z,99675.31
2018-08-11T12:35:21.480Z,99678.36
2018-08-11T12:37:56.151Z,99675.55
2018-08-11T12:40:30.689Z,99668.94
2018-08-11T12:43:05.857Z,99679.53
2018-08-11T12:45:40.523Z,99677.95
2018-08-11T12:48:15.348Z,99671.53
2018-08-11T12:50:49.941Z,99678.52
2018-08-11T12:53:24.665Z,99673.93
2018-08-11T12:55:59.221Z,99680.45
2018-08-11T12:58:34.140Z,99674.50
2018-08-11T13:01:08.677Z,99669.78
2018-08-11T13:03:43.315Z,99672.97
2018-08-11T13:06:17.748Z,99670.33
2018-08-11T13:08:52.260Z,99668.98
2018-08-11T13:11:27.028Z,99661.51
2018-08-11T13:14:11.529Z,99666.42
2018-08-11T13:16:46.185Z,99663.30
2018-08-11T13:19:21.183Z,99661.92
2018-08-11T13:21:55.991Z,99654.62
2018-08-11T13:24:30.526Z,99653.75
2018-08-11T13:27:05.126Z,99642.66
2018-08-11T13:29:39.819Z,99653.42
2018-08-11T13:32:14.809Z,99654.88
2018-08-11T13:34:49.398Z,99652.63
2018-08-11T13:37:24.004Z,99656.08
2018-08-11T13:39:58.820Z,99650.98
2018-08-11T13:42:33.597Z,99657.13
2018-08-11T13:45:08.440Z,99642.08
2018-08-11T13:47:43.031Z,99643.38
2018-08-11T13:50:17.700Z,99639.00
2018-08-11T13:52:52.208Z,99645.27
2018-08-11T13:55:26.613Z,99643.23
2018-08-11T13:58:01.021Z,99634.42
2018-08-11T14:00:35.544Z,99641.47
2018-08-11T14:03:10.074Z,99642.72
2018-08-11T14:05:44.702Z,99634.34
2018-08-11T14:08:19.437Z,99638.59
2018-08-11T14:10:54.173Z,99636.22
2018-08-11T14:13:36.576Z,99637.45
2018-08-11T14:16:11.155Z,99636.65
2018-08-11T14:18:45.753Z,99636.90
2018-08-11T14:21:20.277Z,99633.64
2018-08-11T14:23:54.868Z,99626.30
2018-08-11T14:26:29.544Z,99627.75
2018-08-11T14:29:04.085Z,99623.02
2018-08-11T14:31:38.732Z,99624.86
2018-08-11T14:34:13.191Z,99626.20
2018-08-11T14:36:47.879Z,99623.34
2018-08-11T14:39:22.449Z,99628.11
2018-08-11T14:41:56.988Z,99627.39
2018-08-11T14:44:31.605Z,99627.16
2018-08-11T14:47:06.062Z,99626.66
2018-08-11T14:49:40.680Z,99626.93
2018-08-11T14:52:15.324Z,99623.62
2018-08-11T14:54:49.992Z,99634.90
2018-08-11T14:57:24.560Z,99622.94
2018-08-11T15:02:59.493Z,99620.08
2018-08-11T15:05:34.216Z,99621.59
2018-08-11T15:08:21.582Z,99613.16
2018-08-11T15:10:56.301Z,99613.06
2018-08-11T15:16:43.764Z,99607.79
2018-08-11T15:19:18.405Z,99614.77
2018-08-11T15:21:53.132Z,99618.77
2018-08-11T15:24:27.732Z,99620.58
2018-08-11T15:27:02.404Z,99620.52
2018-08-11T15:29:37.128Z,99616.65
2018-08-11T15:32:11.805Z,99621.39
2018-08-11T15:34:46.128Z,99619.45
2018-08-11T15:37:20.936Z,99620.92
2018-08-11T15:39:55.732Z,99623.86
2018-08-11T15:42:30.417Z,99617.61
2018-08-11T15:45:06.021Z,99618.86
2018-08-11T15:47:43.422Z,99614.38
2018-08-11T15:50:18.110Z,99607.36
2018-08-11T15:52:53.072Z,99623.66
2018-08-11T15:55:27.966Z,99628.47
2018-08-11T15:58:02.548Z,99630.89
2018-08-11T16:00:37.259Z,99620.87
2018-08-11T16:03:11.953Z,99618.42
2018-08-11T16:05:46.328Z,99616.36
2018-08-11T16:08:20.856Z,99616.15
2018-08-11T16:10:55.720Z,99622.77
2018-08-11T16:13:30.215Z,99618.30
2018-08-11T16:16:04.676Z,99614.03
2018-08-11T16:18:39.732Z,99604.91
2018-08-11T16:21:14.170Z,99615.59
2018-08-11T16:23:49.089Z,99615.56
2018-08-11T16:26:23.725Z,99614.72
2018-08-11T16:28:58.676Z,99620.23
2018-08-11T16:31:33.228Z,99613.41
2018-08-11T16:34:07.880Z,99614.56
2018-08-11T16:36:42.434Z,99604.23
2018-08-11T16:39:17.104Z,99612.96
2018-08-11T16:41:51.688Z,99607.22
2018-08-11T16:44:26.309Z,99608.95
2018-08-11T16:47:00.921Z,99613.67
2018-08-11T16:49:35.527Z,99606.91
2018-08-11T16:52:10.116Z,99608.66
2018-08-11T16:54:44.627Z,99607.56
2018-08-11T16:57:19.621Z,99606.13
2018-08-11T16:59:54.049Z,99609.88
2018-08-11T17:02:28.652Z,99609.85
2018-08-11T17:05:03.187Z,99611.17
2018-08-11T17:07:37.813Z,99602.52
2018-08-11T17:10:12.309Z,99607.42
2018-08-11T17:12:46.848Z,99605.13
2018-08-11T17:15:21.424Z,99603.44
2018-08-11T17:17:56.033Z,99602.50
2018-08-11T17:20:30.709Z,99600.81
2018-08-11T17:23:05.680Z,99602.19
2018-08-11T17:25:40.564Z,99606.11
2018-08-11T17:28:15.486Z,99601.92
2018-08-11T17:30:55.627Z,99596.50
2018-08-11T17:33:30.245Z,99592.41
2018-08-11T17:36:05.217Z,99598.89
2018-08-11T17:38:46.180Z,99596.31
2018-08-11T17:41:20.812Z,99597.63
2018-08-11T17:43:55.285Z,99595.58
2018-08-11T17:46:29.868Z,99598.69
2018-08-11T17:49:04.741Z,99596.76
2018-08-11T17:51:39.229Z,99589.67
2018-08-11T17:54:13.969Z,99588.33
2018-08-11T17:56:48.822Z,99590.72
2018-08-11T17:59:23.420Z,99587.64
2018-08-11T18:01:57.876Z,99588.02
2018-08-11T18:04:32.924Z,99589.86
2018-08-11T18:07:07.601Z,99584.16
2018-08-11T18:09:42.279Z,99583.35
2018-08-11T18:12:16.889Z,99583.80
2018-08-11T18:14:51.878Z,99574.85
2018-08-11T18:17:26.469Z,99581.87
2018-08-11T18:20:01.393Z,99581.78
2018-08-11T18:22:36.040Z,99584.09
2018-08-11T18:25:10.712Z,99577.99
2018-08-11T18:27:45.342Z,99582.48
2018-08-11T18:30:20.192Z,99573.74
2018-08-11T18:32:54.799Z,99577.28
2018-08-11T18:35:29.376Z,99579.93
2018-08-11T18:38:03.887Z,99581.54
2018-08-11T18:40:38.514Z,99584.27
2018-08-11T18:43:13.222Z,99580.83
2018-08-11T18:45:47.715Z,99578.88
2018-08-11T18:48:22.277Z,99577.61
2018-08-11T18:50:56.829Z,99586.05
2018-08-11T18:53:31.730Z,99576.19
2018-08-11T18:56:06.377Z,99581.53
2018-08-11T18:58:41.016Z,99588.38
2018-08-11T19:01:15.921Z,99588.36
2018-08-11T19:03:50.564Z,99585.92
2018-08-11T19:06:25.167Z,99587.95
2018-08-11T19:08:59.785Z,99588.96
2018-08-11T19:11:34.739Z,99589.67
2018-08-11T19:14:09.510Z,99588.73
2018-08-11T19:16:44.148Z,99583.30
2018-08-11T19:19:18.635Z,99585.71
2018-08-11T19:21:53.308Z,99590.99
2018-08-11T19:24:27.994Z,99585.88
2018-08-11T19:27:02.900Z,99583.94
2018-08-11T19:29:37.816Z,99579.30
2018-08-11T19:32:12.181Z,99585.19
2018-08-11T19:34:46.662Z,99588.11
2018-08-11T19:37:21.296Z,99588.52
2018-08-11T19:39:56.232Z,99585.06
2018-08-11T19:42:30.925Z,99593.16
2018-08-11T19:45:08.107Z,99589.70
2018-08-11T19:47:42.898Z,99587.45
2018-08-11T19:50:17.297Z,99596.87
2018-08-11T19:52:51.804Z,99585.86
2018-08-11T19:55:26.359Z,99591.74
2018-08-11T19:58:01.894Z,99586.64
2018-08-11T20:00:36.537Z,99583.75
2018-08-11T20:03:11.220Z,99587.14
2018-08-11T20:05:45.764Z,99582.63
2018-08-11T20:08:20.836Z,99579.17
2018-08-11T20:10:55.777Z,99581.67
2018-08-11T20:13:30.556Z,99581.43
2018-08-11T20:16:05.227Z,99579.66
2018-08-11T20:18:39.677Z,99577.01
2018-08-11T20:21:14.108Z,99579.50
2018-08-11T20:23:49.110Z,99576.84
2018-08-11T20:26:24.033Z,99576.17
2018-08-11T20:28:58.560Z,99572.47
2018-08-11T20:31:33.194Z,99567.41
2018-08-11T20:34:08.640Z,99572.16
2018-08-11T20:36:43.082Z,99571.98
2018-08-11T20:39:17.729Z,99572.06
2018-08-11T20:41:52.373Z,99569.09
2018-08-11T20:44:26.953Z,99573.76
2018-08-11T20:47:01.544Z,99572.47
2018-08-11T20:49:36.202Z,99574.80
2018-08-11T20:52:10.935Z,99569.48
2018-08-11T20:54:45.604Z,99569.38
2018-08-11T20:57:20.193Z,99569.20
2018-08-11T20:59:54.684Z,99567.92
2018-08-11T21:02:35.116Z,99562.77
2018-08-11T21:05:19.441Z,99569.44
2018-08-11T21:07:54.040Z,99572.00
2018-08-11T21:10:28.500Z,99572.25
2018-08-11T21:13:03.044Z,99570.64
2018-08-11T21:15:37.634Z,99569.67
2018-08-11T21:18:12.100Z,99565.57
2018-08-11T21:20:46.599Z,99566.05
2018-08-11T21:23:21.173Z,99563.62
2018-08-11T21:25:55.705Z,99561.61
2018-08-11T21:28:30.181Z,99561.21
2018-08-11T21:31:04.752Z,99559.13
2018-08-11T21:33:39.238Z,99563.50
2018-08-11T21:36:13.836Z,99558.98
2018-08-11T21:38:48.320Z,99557.91
2018-08-11T21:41:23.003Z,99557.52
2018-08-11T21:43:57.665Z,99549.47
2018-08-11T21:46:32.231Z,99553.86
2018-08-11T21:49:07.844Z,99560.04
2018-08-11T21:51:42.393Z,99554.56
2018-08-11T21:54:17.384Z,99558.33
2018-08-11T21:56:51.772Z,99549.41
2018-08-11T21:59:26.318Z,99551.17
2018-08-11T22:02:01.033Z,99551.57
2018-08-11T22:07:34.554Z,99542.42
2018-08-11T22:10:14.718Z,99551.67
2018-08-11T22:12:49.207Z,99543.08
2018-08-11T22:15:23.749Z,99540.10
2018-08-11T22:17:58.397Z,99537.25
2018-08-11T22:20:32.974Z,99535.08
2018-08-11T22:23:07.848Z,99535.00
2018-08-11T22:25:42.515Z,99533.55
2018-08-11T22:28:17.437Z,99526.95
2018-08-11T22:30:52.080Z,99538.13
2018-08-11T22:33:26.740Z,99537.09
2018-08-11T22:36:01.361Z,99531.66
2018-08-11T22:38:35.961Z,99528.19
2018-08-11T22:41:10.488Z,99524.49
2018-08-11T22:43:45.082Z,99524.66
2018-08-11T22:46:19.701Z,99531.16
2018-08-11T22:48:54.360Z,99532.54
2018-08-11T22:51:29.057Z,99529.08
2018-08-11T22:54:03.768Z,99527.06
2018-08-11T22:56:38.448Z,99525.06
2018-08-11T22:59:13.077Z,99524.18
2018-08-11T23:01:47.756Z,99517.27
2018-08-11T23:04:22.237Z,99517.09
2018-08-11T23:06:56.760Z,99512.52
2018-08-11T23:09:31.412Z,99511.55
2018-08-11T23:12:05.984Z,99508.41
2018-08-11T23:14:40.473Z,99505.93
2018-08-11T23:17:15.063Z,99501.75
2018-08-11T23:19:49.692Z,99496.53
2018-08-11T23:22:24.148Z,99501.06
2018-08-11T23:24:58.912Z,99495.09
2018-08-11T23:27:33.660Z,99493.19
2018-08-11T23:30:10.973Z,99494.75
2018-08-11T23:32:45.789Z,99491.95
2018-08-11T23:35:20.240Z,99489.78
2018-08-11T23:37:54.720Z,99484.35
2018-08-11T23:40:29.360Z,99486.89
2018-08-11T23:43:03.982Z,99483.66
2018-08-11T23:45:38.852Z,99482.87
2018-08-11T23:48:13.443Z,99481.02
2018-08-11T23:50:48.227Z,99476.67
2018-08-11T23:53:22.825Z,99472.02
2018-08-11T23:55:57.620Z,99470.16
2018-08-11T23:58:32.236Z,99473.70
